createdAt,value
2019-03-15T00:01:44.668Z,16.95
2019-03-15T00:04:13.233Z,22.10
2019-03-15T00:06:42.074Z,15.90
2019-03-15T00:09:10.580Z,18.97
2019-03-15T00:11:39.068Z,24.18
2019-03-15T00:14:08.232Z,20.52
2019-03-15T00:16:37.509Z,23.35
2019-03-15T00:19:06.408Z,26.15
2019-03-15T00:21:34.981Z,26.40
2019-03-15T00:24:03.467Z,23.07
2019-03-15T00:26:31.996Z,26.05
2019-03-15T00:29:00.506Z,19.30
2019-03-15T00:31:29.002Z,26.17
2019-03-15T00:33:57.476Z,21.87
2019-03-15T00:36:26.436Z,29.27
2019-03-15T00:38:54.904Z,23.75
2019-03-15T00:41:23.532Z,22.57
2019-03-15T00:43:52.408Z,17.75
2019-03-15T00:46:21.176Z,17.40
2019-03-15T00:48:49.648Z,19.57
2019-03-15T00:51:18.172Z,21.45
2019-03-15T00:53:46.688Z,19.87
2019-03-15T00:56:15.464Z,23.03
2019-03-15T00:58:43.973Z,20.50
2019-03-15T01:01:12.488Z,17.82
2019-03-15T01:03:40.984Z,17.60
2019-03-15T01:06:09.529Z,19.37
2019-03-15T01:08:38.008Z,18.70
2019-03-15T01:11:06.516Z,18.27
2019-03-15T01:13:35.368Z,20.48
2019-03-15T01:16:04.616Z,17.85
2019-03-15T01:18:33.080Z,17.73
2019-03-15T01:21:01.888Z,17.82
2019-03-15T01:23:30.380Z,18.07
2019-03-15T01:25:58.864Z,16.82
2019-03-15T01:28:27.636Z,17.45
2019-03-15T01:30:56.527Z,19.52
2019-03-15T01:33:25.282Z,16.82
2019-03-15T01:35:53.759Z,16.25
2019-03-15T01:38:22.856Z,17.75
2019-03-15T01:40:51.314Z,18.27
2019-03-15T01:43:19.791Z,16.05
2019-03-15T01:45:48.543Z,15.63
2019-03-15T01:48:17.952Z,17.90
2019-03-15T01:50:46.397Z,15.70
2019-03-15T01:53:15.592Z,14.53
2019-03-15T01:55:44.064Z,15.32
2019-03-15T01:58:12.927Z,16.27
2019-03-15T02:00:41.746Z,20.97
2019-03-15T02:03:10.228Z,17.92
2019-03-15T02:05:39.019Z,17.30
2019-03-15T02:08:08.082Z,17.37
2019-03-15T02:10:37.454Z,19.52
2019-03-15T02:13:05.204Z,19.57
2019-03-15T02:15:33.898Z,18.25
2019-03-15T02:18:02.340Z,18.75
2019-03-15T02:20:31.136Z,19.05
2019-03-15T02:22:59.947Z,17.95
2019-03-15T02:25:28.471Z,17.02
2019-03-15T02:27:57.343Z,16.65
2019-03-15T02:30:26.271Z,18.50
2019-03-15T02:32:54.739Z,16.77
2019-03-15T02:35:23.600Z,18.10
2019-03-15T02:37:52.428Z,17.90
2019-03-15T02:40:21.211Z,17.98
2019-03-15T02:42:50.014Z,19.87
2019-03-15T02:45:18.680Z,16.70
2019-03-15T02:47:47.231Z,19.42
2019-03-15T02:50:15.763Z,19.98
2019-03-15T02:52:44.313Z,19.62
2019-03-15T02:55:12.825Z,22.67
2019-03-15T02:57:42.044Z,19.48
2019-03-15T03:00:10.652Z,15.90
2019-03-15T03:02:39.230Z,15.70
2019-03-15T03:05:08.295Z,18.98
2019-03-15T03:07:37.055Z,20.97
2019-03-15T03:10:05.681Z,15.93
2019-03-15T03:12:34.188Z,16.93
2019-03-15T03:15:03.052Z,19.95
2019-03-15T03:17:31.536Z,17.90
2019-03-15T03:20:00.028Z,15.63
2019-03-15T03:22:28.548Z,21.02
2019-03-15T03:24:57.114Z,20.52
2019-03-15T03:27:25.639Z,23.18
2019-03-15T03:29:55.068Z,21.27
2019-03-15T03:32:23.548Z,22.00
2019-03-15T03:34:52.029Z,15.40
2019-03-15T03:37:20.823Z,15.15
2019-03-15T03:39:49.300Z,15.05
2019-03-15T03:42:18.064Z,14.55
2019-03-15T03:44:46.564Z,15.53
2019-03-15T03:47:15.027Z,16.00
2019-03-15T03:49:44.147Z,15.00
2019-03-15T03:52:12.647Z,16.95
2019-03-15T03:54:41.163Z,13.93
2019-03-15T03:57:10.498Z,16.80
2019-03-15T03:59:38.995Z,16.77
2019-03-15T04:02:07.645Z,20.48
2019-03-15T04:04:36.120Z,18.30
2019-03-15T04:07:05.166Z,20.60
2019-03-15T04:09:33.759Z,19.20
2019-03-15T04:12:02.235Z,19.20
2019-03-15T04:14:31.317Z,19.05
2019-03-15T04:17:00.498Z,17.67
2019-03-15T04:19:28.968Z,18.80
2019-03-15T04:21:57.795Z,17.80
2019-03-15T04:24:26.939Z,21.40
2019-03-15T04:26:55.748Z,19.77
2019-03-15T04:29:24.202Z,19.05
2019-03-15T04:31:53.016Z,20.60
2019-03-15T04:34:21.795Z,23.98
2019-03-15T04:36:50.255Z,18.23
2019-03-15T04:39:19.326Z,20.08
2019-03-15T04:41:48.506Z,21.77
2019-03-15T04:44:16.992Z,18.60
2019-03-15T04:46:45.878Z,19.87
2019-03-15T04:49:14.406Z,23.40
2019-03-15T04:51:43.886Z,22.32
2019-03-15T04:54:12.893Z,24.32
2019-03-15T04:56:42.167Z,20.75
2019-03-15T04:59:10.950Z,21.60
2019-03-15T05:01:40.670Z,22.65
2019-03-15T05:04:09.442Z,25.55
2019-03-15T05:06:37.927Z,27.35
2019-03-15T05:09:06.918Z,27.87
2019-03-15T05:11:35.631Z,30.35
2019-03-15T05:14:05.102Z,26.30
2019-03-15T05:16:33.886Z,27.02
2019-03-15T05:19:02.660Z,29.12
2019-03-15T05:21:31.170Z,34.92
2019-03-15T05:23:59.691Z,30.75
2019-03-15T05:26:28.448Z,34.27
2019-03-15T05:28:57.203Z,36.25
2019-03-15T05:31:25.750Z,35.17
2019-03-15T05:33:54.266Z,34.98
2019-03-15T05:36:24.702Z,34.58
2019-03-15T05:38:53.798Z,36.73
2019-03-15T05:41:23.237Z,34.67
2019-03-15T05:43:53.215Z,39.18
2019-03-15T05:46:20.614Z,36.48
2019-03-15T05:48:49.294Z,34.67
2019-03-15T05:51:17.810Z,36.03
2019-03-15T05:53:46.498Z,40.10
2019-03-15T05:56:15.614Z,33.53
2019-03-15T05:58:44.946Z,35.25
2019-03-15T06:01:13.538Z,33.50
2019-03-15T06:03:48.364Z,32.53
2019-03-15T06:06:10.578Z,35.70
2019-03-15T06:08:39.078Z,37.55
2019-03-15T06:11:08.684Z,33.20
2019-03-15T06:13:37.166Z,35.25
2019-03-15T06:16:05.910Z,38.85
2019-03-15T06:18:34.420Z,38.98
2019-03-15T06:21:02.882Z,36.90
2019-03-15T06:23:31.374Z,36.10
2019-03-15T06:26:00.198Z,33.50
2019-03-15T06:28:28.718Z,35.00
2019-03-15T06:30:57.272Z,42.33
2019-03-15T06:33:28.586Z,39.67
2019-03-15T06:35:54.733Z,33.98
2019-03-15T06:38:23.222Z,34.83
2019-03-15T06:40:51.700Z,40.75
2019-03-15T06:43:20.582Z,34.27
2019-03-15T06:45:49.534Z,44.13
2019-03-15T06:48:18.009Z,46.23
2019-03-15T06:50:46.478Z,36.95
2019-03-15T06:53:15.229Z,44.20
2019-03-15T06:55:43.685Z,39.50
2019-03-15T06:58:12.190Z,37.23
2019-03-15T07:00:40.757Z,37.73
2019-03-15T07:03:09.294Z,37.42
2019-03-15T07:05:37.749Z,36.38
2019-03-15T07:08:06.382Z,39.60
2019-03-15T07:10:35.129Z,39.03
2019-03-15T07:13:03.985Z,36.28
2019-03-15T07:15:32.504Z,40.05
2019-03-15T07:18:00.981Z,35.70
2019-03-15T07:20:29.787Z,35.15
2019-03-15T07:22:58.318Z,38.23
2019-03-15T07:25:26.821Z,39.05
2019-03-15T07:27:55.421Z,43.75
2019-03-15T07:30:23.933Z,41.92
2019-03-15T07:32:53.223Z,39.05
2019-03-15T07:35:22.009Z,43.42
2019-03-15T07:37:51.061Z,41.63
2019-03-15T07:40:19.821Z,40.90
2019-03-15T07:42:48.337Z,34.88
2019-03-15T07:45:16.893Z,43.78
2019-03-15T07:47:45.531Z,43.70
2019-03-15T07:50:14.650Z,40.23
2019-03-15T07:52:42.677Z,38.23
2019-03-15T07:55:11.191Z,42.03
2019-03-15T07:57:39.978Z,37.90
2019-03-15T08:00:09.045Z,35.58
2019-03-15T08:02:37.848Z,34.88
2019-03-15T08:05:07.064Z,36.58
2019-03-15T08:07:37.926Z,33.60
2019-03-15T08:10:05.394Z,36.75
2019-03-15T08:12:33.872Z,32.63
2019-03-15T08:15:02.409Z,31.65
2019-03-15T08:17:30.869Z,29.72
2019-03-15T08:19:59.546Z,33.58
2019-03-15T08:22:28.078Z,31.87
2019-03-15T08:24:56.596Z,29.63
2019-03-15T08:27:25.332Z,28.07
2019-03-15T08:29:53.812Z,31.07
2019-03-15T08:32:22.572Z,32.13
2019-03-15T08:34:51.035Z,27.10
2019-03-15T08:37:19.909Z,28.40
2019-03-15T08:39:48.405Z,29.67
2019-03-15T08:42:17.189Z,30.13
2019-03-15T08:44:45.923Z,31.70
2019-03-15T08:47:14.448Z,30.60
2019-03-15T08:49:42.893Z,26.45
2019-03-15T08:52:11.388Z,27.32
2019-03-15T08:54:39.892Z,27.98
2019-03-15T08:57:08.710Z,24.72
2019-03-15T08:59:37.431Z,21.75
2019-03-15T09:02:06.015Z,23.67
2019-03-15T09:04:35.088Z,25.43
2019-03-15T09:07:04.714Z,20.20
2019-03-15T09:09:35.966Z,19.90
2019-03-15T09:12:02.796Z,20.43
2019-03-15T09:14:31.244Z,18.32
2019-03-15T09:16:59.744Z,18.52
2019-03-15T09:19:28.740Z,18.55
2019-03-15T09:22:00.456Z,20.32
2019-03-15T09:24:26.420Z,20.35
2019-03-15T09:26:55.164Z,19.50
2019-03-15T09:29:23.979Z,20.52
2019-03-15T09:32:04.857Z,20.80
2019-03-15T09:34:21.444Z,21.57
2019-03-15T09:36:50.758Z,21.55
2019-03-15T09:39:19.224Z,17.98
2019-03-15T09:41:48.336Z,16.42
2019-03-15T09:44:17.136Z,17.00
2019-03-15T09:46:45.952Z,23.50
2019-03-15T09:49:14.804Z,22.73
2019-03-15T09:51:43.608Z,18.15
2019-03-15T09:54:12.084Z,20.20
2019-03-15T09:56:40.585Z,17.07
2019-03-15T09:59:09.374Z,25.92
2019-03-15T10:01:38.236Z,19.70
2019-03-15T10:04:06.721Z,18.10
2019-03-15T10:06:35.252Z,18.20
2019-03-15T10:09:04.759Z,18.23
2019-03-15T10:11:33.408Z,18.37
2019-03-15T10:14:02.386Z,19.05
2019-03-15T10:16:31.660Z,18.00
2019-03-15T10:19:00.295Z,20.48
2019-03-15T10:21:28.767Z,19.30
2019-03-15T10:23:57.248Z,21.05
2019-03-15T10:26:25.808Z,30.05
2019-03-15T10:28:54.289Z,23.70
2019-03-15T10:31:22.821Z,21.90
2019-03-15T10:33:51.396Z,13.55
2019-03-15T10:36:20.399Z,14.98
2019-03-15T10:38:49.163Z,12.50
2019-03-15T10:41:18.184Z,7.78
2019-03-15T10:43:47.447Z,5.83
2019-03-15T10:46:16.312Z,6.00
2019-03-15T10:48:44.912Z,9.88
2019-03-15T10:51:13.452Z,13.45
2019-03-15T10:53:42.224Z,12.20
2019-03-15T10:56:10.716Z,10.55
2019-03-15T10:58:39.545Z,11.20
2019-03-15T11:01:08.040Z,10.00
2019-03-15T11:03:36.815Z,11.45
2019-03-15T11:06:05.632Z,11.08
2019-03-15T11:08:34.419Z,12.45
2019-03-15T11:11:02.995Z,12.58
2019-03-15T11:13:32.388Z,9.70
2019-03-15T11:16:01.211Z,16.85
2019-03-15T11:18:29.704Z,12.53
2019-03-15T11:20:58.484Z,13.50
2019-03-15T11:23:26.944Z,11.22
2019-03-15T11:25:56.179Z,9.88
2019-03-15T11:28:24.805Z,17.00
2019-03-15T11:30:53.923Z,10.63
2019-03-15T11:33:22.387Z,7.17
2019-03-15T11:35:51.533Z,9.50
2019-03-15T11:38:19.983Z,7.60
2019-03-15T11:40:48.471Z,8.43
2019-03-15T11:43:16.932Z,9.23
2019-03-15T11:45:46.659Z,8.65
2019-03-15T11:48:15.140Z,9.33
2019-03-15T11:50:43.609Z,9.65
2019-03-15T11:53:12.144Z,9.63
2019-03-15T11:55:40.603Z,9.80
2019-03-15T11:58:09.119Z,10.00
2019-03-15T12:00:37.611Z,9.13
2019-03-15T12:03:06.408Z,8.33
2019-03-15T12:05:34.891Z,8.73
2019-03-15T12:08:03.513Z,11.10
2019-03-15T12:10:32.311Z,10.32
2019-03-15T12:13:01.475Z,10.75
2019-03-15T12:15:29.939Z,8.45
2019-03-15T12:17:58.700Z,11.15
2019-03-15T12:20:27.247Z,15.58
2019-03-15T12:22:56.211Z,13.25
2019-03-15T12:25:24.839Z,11.78
2019-03-15T12:27:53.686Z,12.45
2019-03-15T12:30:22.407Z,9.48
2019-03-15T12:32:50.895Z,12.95
2019-03-15T12:35:19.764Z,12.37
2019-03-15T12:37:48.478Z,14.38
2019-03-15T12:40:17.091Z,10.23
2019-03-15T12:42:45.583Z,12.82
2019-03-15T12:45:14.155Z,13.05
2019-03-15T12:47:42.672Z,6.75
2019-03-15T12:50:11.323Z,4.20
2019-03-15T12:52:47.030Z,2.50
2019-03-15T12:55:08.742Z,4.62
2019-03-15T12:57:37.684Z,4.65
2019-03-15T13:00:07.604Z,5.50
2019-03-15T13:02:36.079Z,4.03
2019-03-15T13:05:05.683Z,5.55
2019-03-15T13:07:34.293Z,6.20
2019-03-15T13:10:03.938Z,2.80
2019-03-15T13:12:32.746Z,3.05
2019-03-15T13:15:01.204Z,9.20
2019-03-15T13:17:29.667Z,7.17
2019-03-15T13:19:58.189Z,6.65
2019-03-15T13:22:26.702Z,2.92
2019-03-15T13:24:55.215Z,3.83
2019-03-15T13:27:23.678Z,2.67
2019-03-15T13:29:52.510Z,5.00
2019-03-15T13:32:21.018Z,16.40
2019-03-15T13:34:49.742Z,4.75
2019-03-15T13:37:18.673Z,8.93
2019-03-15T13:39:47.486Z,5.10
2019-03-15T13:42:16.018Z,7.62
2019-03-15T13:44:44.506Z,6.35
2019-03-15T13:47:13.362Z,6.62
2019-03-15T13:49:42.470Z,5.10
2019-03-15T13:52:11.190Z,5.70
2019-03-15T13:54:39.730Z,5.12
2019-03-15T13:57:20.178Z,5.50
2019-03-15T13:59:36.922Z,4.00
2019-03-15T14:02:07.718Z,4.45
2019-03-15T14:04:33.956Z,7.37
2019-03-15T14:07:02.402Z,5.50
2019-03-15T14:09:30.898Z,4.47
2019-03-15T14:11:59.973Z,5.00
2019-03-15T14:14:28.572Z,6.60
2019-03-15T14:16:57.183Z,8.00
2019-03-15T14:19:25.614Z,6.00
2019-03-15T14:21:54.366Z,4.25
2019-03-15T14:24:23.044Z,10.13
2019-03-15T14:26:51.642Z,15.05
2019-03-15T14:29:20.623Z,4.67
2019-03-15T14:31:49.083Z,9.23
2019-03-15T14:34:17.902Z,4.45
2019-03-15T14:36:46.830Z,2.80
2019-03-15T14:39:15.678Z,2.80
2019-03-15T14:41:44.669Z,3.50
2019-03-15T14:44:18.309Z,1.97
2019-03-15T14:46:48.126Z,1.85
2019-03-15T14:49:19.041Z,2.87
2019-03-15T14:51:51.721Z,4.05
2019-03-15T14:54:20.950Z,6.53
2019-03-15T14:56:49.765Z,2.90
2019-03-15T14:59:22.725Z,5.62
2019-03-15T15:01:56.541Z,6.65
2019-03-15T15:04:25.025Z,6.75
2019-03-15T15:06:57.437Z,8.20
2019-03-15T15:09:27.884Z,11.05
2019-03-15T15:11:56.825Z,8.05
2019-03-15T15:14:25.314Z,9.23
2019-03-15T15:16:54.057Z,1.67
2019-03-15T15:19:23.009Z,1.50
2019-03-15T15:21:52.916Z,1.62
2019-03-15T15:24:21.973Z,1.90
2019-03-15T15:26:50.485Z,2.65
2019-03-15T15:29:21.945Z,1.52
2019-03-15T15:31:47.561Z,2.67
2019-03-15T15:34:16.085Z,2.52
2019-03-15T15:36:44.805Z,3.67
2019-03-15T15:39:13.611Z,4.47
2019-03-15T15:41:42.075Z,11.50
2019-03-15T15:44:10.639Z,7.22
2019-03-15T15:46:39.690Z,10.03
2019-03-15T15:49:08.453Z,8.20
2019-03-15T15:51:37.624Z,7.10
2019-03-15T15:54:06.078Z,10.25
2019-03-15T15:56:34.563Z,7.62
2019-03-15T15:59:03.353Z,4.92
2019-03-15T16:01:31.817Z,5.75
2019-03-15T16:04:01.957Z,3.80
2019-03-15T16:06:30.465Z,2.60
2019-03-15T16:08:58.980Z,2.12
2019-03-15T16:11:27.481Z,1.75
2019-03-15T16:13:56.006Z,2.20
2019-03-15T16:16:24.795Z,2.05
2019-03-15T16:18:53.400Z,2.10
2019-03-15T16:21:21.843Z,2.50
2019-03-15T16:23:50.303Z,4.00
2019-03-15T16:26:18.799Z,6.22
2019-03-15T16:28:47.310Z,13.68
2019-03-15T16:31:16.159Z,19.92
2019-03-15T16:33:44.975Z,17.90
2019-03-15T16:36:13.735Z,16.87
2019-03-15T16:38:42.233Z,15.80
2019-03-15T16:41:11.007Z,14.47
2019-03-15T16:43:39.474Z,7.75
2019-03-15T16:46:08.563Z,6.08
2019-03-15T16:48:37.075Z,7.87
2019-03-15T16:51:18.749Z,10.00
2019-03-15T16:53:34.134Z,12.05
2019-03-15T16:56:02.710Z,7.40
2019-03-15T16:58:44.553Z,8.10
2019-03-15T17:01:00.394Z,10.88
2019-03-15T17:03:28.872Z,9.70
2019-03-15T17:05:57.650Z,10.48
2019-03-15T17:08:26.138Z,10.00
2019-03-15T17:10:55.000Z,8.08
2019-03-15T17:13:23.462Z,7.87
2019-03-15T17:15:51.960Z,9.55
2019-03-15T17:18:20.658Z,11.57
2019-03-15T17:20:49.133Z,12.70
2019-03-15T17:23:17.894Z,15.90
2019-03-15T17:25:46.358Z,16.65
2019-03-15T17:28:14.950Z,12.75
2019-03-15T17:30:43.477Z,9.33
2019-03-15T17:33:11.946Z,10.25
2019-03-15T17:35:40.490Z,8.63
2019-03-15T17:38:08.990Z,8.73
2019-03-15T17:40:37.474Z,10.55
2019-03-15T17:43:06.249Z,12.15
2019-03-15T17:45:34.781Z,10.28
2019-03-15T17:48:03.350Z,11.25
2019-03-15T17:50:31.837Z,12.37
2019-03-15T17:53:00.393Z,7.33
2019-03-15T17:55:28.914Z,6.22
2019-03-15T17:57:57.584Z,6.65
2019-03-15T18:00:31.904Z,9.93
2019-03-15T18:03:01.131Z,9.35
2019-03-15T18:05:29.683Z,9.05
2019-03-15T18:07:58.262Z,13.65
2019-03-15T18:10:27.401Z,13.68
2019-03-15T18:12:56.457Z,8.95
2019-03-15T18:15:25.529Z,7.87
2019-03-15T18:17:54.373Z,5.58
2019-03-15T18:20:23.197Z,8.83
2019-03-15T18:22:51.801Z,8.87
2019-03-15T18:25:20.609Z,7.17
2019-03-15T18:27:50.078Z,9.75
2019-03-15T18:30:18.939Z,9.80
2019-03-15T18:32:47.593Z,9.78
2019-03-15T18:35:17.065Z,9.87
2019-03-15T18:37:46.362Z,9.18
2019-03-15T18:40:18.130Z,11.50
2019-03-15T18:42:48.330Z,9.80
2019-03-15T18:45:16.889Z,9.60
2019-03-15T18:47:45.660Z,11.15
2019-03-15T18:50:16.961Z,9.30
2019-03-15T18:52:46.077Z,7.47
2019-03-15T18:55:14.676Z,7.78
2019-03-15T18:57:44.277Z,7.92
2019-03-15T19:00:16.681Z,7.10
2019-03-15T19:02:47.609Z,10.23
2019-03-15T19:05:16.821Z,7.53
2019-03-15T19:07:46.709Z,8.35
2019-03-15T19:10:17.052Z,9.68
2019-03-15T19:12:46.746Z,7.37
2019-03-15T19:15:16.577Z,7.67
2019-03-15T19:17:46.163Z,11.48
2019-03-15T19:20:15.013Z,12.70
2019-03-15T19:22:44.264Z,11.25
2019-03-15T19:25:14.061Z,9.77
2019-03-15T19:27:43.493Z,11.55
2019-03-15T19:30:12.862Z,11.03
2019-03-15T19:32:42.331Z,9.95
2019-03-15T19:35:11.970Z,7.53
2019-03-15T19:37:41.089Z,13.13
2019-03-15T19:40:11.486Z,11.85
2019-03-15T19:42:40.682Z,9.13
2019-03-15T19:45:11.536Z,8.43
2019-03-15T19:47:40.858Z,14.25
2019-03-15T19:50:11.978Z,12.40
2019-03-15T19:52:41.294Z,11.97
2019-03-15T19:55:10.799Z,13.32
2019-03-15T19:57:40.878Z,14.73
2019-03-15T20:00:11.638Z,13.00
2019-03-15T20:02:40.154Z,13.93
2019-03-15T20:05:08.678Z,15.53
2019-03-15T20:07:37.380Z,12.30
2019-03-15T20:10:06.118Z,14.53
2019-03-15T20:12:34.621Z,16.37
2019-03-15T20:15:03.171Z,14.35
2019-03-15T20:17:32.278Z,17.50
2019-03-15T20:20:01.082Z,13.05
2019-03-15T20:22:29.618Z,11.75
2019-03-15T20:24:58.170Z,17.37
2019-03-15T20:27:26.710Z,14.28
2019-03-15T20:29:55.226Z,15.58
2019-03-15T20:32:23.722Z,11.50
2019-03-15T20:34:52.236Z,16.40
2019-03-15T20:37:20.749Z,15.93
2019-03-15T20:39:49.238Z,12.70
2019-03-15T20:42:17.738Z,14.45
2019-03-15T20:44:46.281Z,15.72
2019-03-15T20:47:14.769Z,15.38
2019-03-15T20:49:43.263Z,14.85
2019-03-15T20:52:11.813Z,19.73
2019-03-15T20:54:40.363Z,16.80
2019-03-15T20:57:09.394Z,13.95
2019-03-15T20:59:37.946Z,17.62
2019-03-15T21:02:06.510Z,13.32
2019-03-15T21:04:35.010Z,15.20
2019-03-15T21:07:03.544Z,12.33
2019-03-15T21:09:32.100Z,10.48
2019-03-15T21:12:00.574Z,15.68
2019-03-15T21:14:29.132Z,15.38
2019-03-15T21:16:57.704Z,20.68
2019-03-15T21:19:26.722Z,19.00
2019-03-15T21:21:56.466Z,17.85
2019-03-15T21:24:23.746Z,18.40
2019-03-15T21:26:52.288Z,18.10
2019-03-15T21:29:20.825Z,15.43
2019-03-15T21:31:49.354Z,18.73
2019-03-15T21:34:17.900Z,19.50
2019-03-15T21:36:46.449Z,23.10
2019-03-15T21:39:15.208Z,21.75
2019-03-15T21:41:43.965Z,11.93
2019-03-15T21:44:12.563Z,10.68
2019-03-15T21:46:41.144Z,10.80
2019-03-15T21:49:09.828Z,9.68
2019-03-15T21:51:38.384Z,9.03
2019-03-15T21:54:06.962Z,6.00
2019-03-15T21:56:36.000Z,7.62
2019-03-15T21:59:05.188Z,7.30
2019-03-15T22:01:34.116Z,6.70
2019-03-15T22:04:02.727Z,6.78
2019-03-15T22:06:31.280Z,5.33
2019-03-15T22:08:59.928Z,4.28
2019-03-15T22:11:28.713Z,4.22
2019-03-15T22:13:57.272Z,4.57
2019-03-15T22:16:25.824Z,6.08
2019-03-15T22:18:54.390Z,6.33
2019-03-15T22:21:22.929Z,8.10
2019-03-15T22:23:51.476Z,4.08
2019-03-15T22:26:20.596Z,4.25
2019-03-15T22:28:50.251Z,6.37
2019-03-15T22:31:18.785Z,7.37
2019-03-15T22:33:47.329Z,6.45
2019-03-15T22:36:16.184Z,9.73
2019-03-15T22:38:44.695Z,13.53
2019-03-15T22:41:13.238Z,12.80
2019-03-15T22:43:41.799Z,8.85
2019-03-15T22:46:10.684Z,7.77
2019-03-15T22:48:39.487Z,7.30
2019-03-15T22:51:08.329Z,5.92
2019-03-15T22:53:37.255Z,8.13
2019-03-15T22:56:05.843Z,12.00
2019-03-15T22:58:34.335Z,5.80
2019-03-15T23:01:02.936Z,9.45
2019-03-15T23:03:32.076Z,6.47
2019-03-15T23:06:00.603Z,7.65
2019-03-15T23:08:29.083Z,10.98
2019-03-15T23:10:57.844Z,9.95
2019-03-15T23:13:26.436Z,10.58
2019-03-15T23:15:54.923Z,5.33
2019-03-15T23:18:23.707Z,4.72
2019-03-15T23:20:52.257Z,4.62
2019-03-15T23:23:24.250Z,6.03
2019-03-15T23:25:49.786Z,5.95
2019-03-15T23:28:18.283Z,7.45
2019-03-15T23:30:46.760Z,9.43
2019-03-15T23:33:15.340Z,6.70
2019-03-15T23:35:53.969Z,6.47
2019-03-15T23:38:12.620Z,5.58
2019-03-15T23:40:41.247Z,7.25
2019-03-15T23:43:09.881Z,5.95
2019-03-15T23:45:38.493Z,8.50
2019-03-15T23:48:07.049Z,7.03
2019-03-15T23:50:35.541Z,7.83
2019-03-15T23:53:04.065Z,7.40
2019-03-15T23:55:32.553Z,6.45
2019-03-15T23:58:01.038Z,9.23
